Time;durP1;ratioP1;P1;durP2;ratioP2;P2;SDS_P1;SDS_P2;PMS_P1;PMS_P2;Temp;Humidity;BMP_temperature;BMP_pressure;BME280_temperature;BME280_humidity;BME280_pressure;Samples;Min_cycle;Max_cycle;Signal;HPM_P1;HPM_P2
2021/06/17 00:00:41;;;;;;;5.47;4.42;;;;;;;12.26;93.97;93510.38;1783671;80;21052;-86
2021/06/17 00:03:08;;;;;;;6.40;4.72;;;;;;;12.24;93.60;93516.05;1797164;79;20978;-86
2021/06/17 00:05:36;;;;;;;9.53;5.92;;;;;;;12.19;93.56;93510.44;1815290;79;21049;-85
2021/06/17 00:08:05;;;;;;;7.87;5.62;;;;;;;12.13;93.53;93514.17;1814250;79;21073;-86
2021/06/17 00:10:40;;;;;;;10.28;7.20;;;;;;;12.12;93.52;93506.41;1815226;79;21104;-85
2021/06/17 00:13:16;;;;;;;15.03;6.37;;;;;;;12.12;93.53;93510.50;1814822;79;21033;-83
2021/06/17 00:15:45;;;;;;;9.35;5.62;;;;;;;12.06;93.57;93509.38;1815230;79;21026;-85
2021/06/17 00:18:11;;;;;;;6.67;5.95;;;;;;;11.97;94.03;93505.75;1816794;78;21021;-86
2021/06/17 00:20:38;;;;;;;9.18;6.42;;;;;;;11.94;94.62;93503.05;1818828;78;21116;-86
2021/06/17 00:23:05;;;;;;;9.83;6.90;;;;;;;11.89;95.15;93505.63;1818521;78;21964;-87
2021/06/17 00:25:31;;;;;;;8.30;4.55;;;;;;;11.89;94.90;93509.72;1818128;78;21017;-86
2021/06/17 00:27:58;;;;;;;6.55;5.08;;;;;;;11.87;94.98;93508.73;1818101;78;21550;-84
2021/06/17 00:30:24;;;;;;;6.35;4.20;;;;;;;11.86;95.54;93507.19;1817578;78;21017;-84
2021/06/17 00:32:51;;;;;;;10.85;6.12;;;;;;;11.87;95.94;93506.01;1817525;78;21017;-87
2021/06/17 00:35:18;;;;;;;7.08;4.95;;;;;;;11.91;96.38;93497.22;1818636;78;21342;-85
2021/06/17 00:37:44;;;;;;;6.30;4.40;;;;;;;11.96;96.07;93495.23;1818501;78;21073;-87
2021/06/17 00:40:13;;;;;;;6.67;4.25;;;;;;;11.97;95.35;93498.17;1818079;78;21042;-86
2021/06/17 00:42:42;;;;;;;4.60;3.77;;;;;;;11.89;95.07;93495.50;1817646;78;21017;-86
2021/06/17 00:45:10;;;;;;;4.12;3.72;;;;;;;11.91;95.01;93491.00;1818658;78;20994;-87
2021/06/17 00:47:37;;;;;;;7.42;3.75;;;;;;;11.90;94.78;93491.59;1818368;78;21912;-87
2021/06/17 00:50:04;;;;;;;5.33;4.50;;;;;;;11.87;94.89;93494.34;1818637;78;21045;-85
2021/06/17 00:52:31;;;;;;;5.40;4.22;;;;;;;11.85;94.94;93492.62;1817355;78;21065;-86
2021/06/17 00:54:58;;;;;;;9.23;4.60;;;;;;;11.83;95.17;93493.00;1818502;78;21595;-84
2021/06/17 00:57:25;;;;;;;6.10;3.70;;;;;;;11.81;95.29;93488.53;1817782;78;21080;-84
2021/06/17 00:59:51;;;;;;;8.53;4.28;;;;;;;11.81;95.49;93493.17;1792967;78;21766;-85
2021/06/17 01:02:17;;;;;;;4.53;3.85;;;;;;;11.79;95.53;93489.50;1817719;78;21034;-86
2021/06/17 01:04:44;;;;;;;6.95;3.75;;;;;;;11.74;95.64;93488.58;1817308;78;21099;-85
2021/06/17 01:07:10;;;;;;;6.85;4.20;;;;;;;11.69;95.89;93482.17;1817661;78;21069;-86
2021/06/17 01:09:45;;;;;;;9.20;4.40;;;;;;;11.67;96.09;93483.95;1818501;78;21033;-86
2021/06/17 01:12:24;;;;;;;;;;;;;;;11.69;96.15;93476.73;1821068;78;21703;-85
2021/06/17 01:14:56;;;;;;;4.33;3.87;;;;;;;11.74;95.88;93476.31;1837486;76;20128;-86
2021/06/17 01:17:22;;;;;;;5.83;3.70;;;;;;;11.73;95.53;93478.83;1838790;78;21023;-86
2021/06/17 01:20:14;;;;;;;3.67;3.37;;;;;;;11.69;95.09;93475.37;1837666;76;22226;-86
2021/06/17 01:23:04;;;;;;;4.22;3.77;;;;;;;11.65;95.04;93472.66;1836700;78;21026;-85
2021/06/17 01:25:48;;;;;;;4.92;3.50;;;;;;;11.60;95.05;93470.38;1832496;78;21734;-88
2021/06/17 01:28:19;;;;;;;5.70;3.83;;;;;;;11.55;94.99;93474.90;1836403;77;21587;-85
2021/06/17 01:31:01;;;;;;;4.20;3.70;;;;;;;11.51;95.45;93477.44;1811540;77;21013;-85
2021/06/17 01:33:34;;;;;;;8.48;4.37;;;;;;;11.50;95.73;93483.47;1837137;78;21012;-84
2021/06/17 01:36:08;;;;;;;6.53;3.37;;;;;;;11.54;95.35;93483.45;1838362;78;21271;-84
2021/06/17 01:38:35;;;;;;;5.72;4.00;;;;;;;11.50;95.12;93485.42;1839538;77;21433;-86
2021/06/17 01:41:02;;;;;;;4.58;4.12;;;;;;;11.40;95.62;93477.53;1838047;78;21725;-87
2021/06/17 01:43:28;;;;;;;4.90;4.40;;;;;;;11.40;95.69;93479.66;1838505;78;21061;-84
2021/06/17 01:45:57;;;;;;;5.53;3.58;;;;;;;11.36;95.23;93480.86;1837953;78;21261;-86
2021/06/17 01:48:24;;;;;;;4.33;3.75;;;;;;;11.23;95.25;93486.56;1839257;77;21682;-85
2021/06/17 01:50:50;;;;;;;6.67;3.40;;;;;;;11.15;95.74;93491.27;1838280;78;21137;-84
2021/06/17 01:53:19;;;;;;;4.30;3.50;;;;;;;11.14;96.03;93493.80;1837895;78;21094;-85
2021/06/17 01:55:45;;;;;;;6.12;4.37;;;;;;;11.15;96.26;93492.03;1838500;78;21081;-85
2021/06/17 01:58:14;;;;;;;5.67;4.20;;;;;;;11.19;96.37;93496.10;1838153;78;21093;-87
2021/06/17 02:00:44;;;;;;;5.15;3.92;;;;;;;11.22;96.38;93498.03;1837359;77;21050;-85
2021/06/17 02:03:10;;;;;;;5.90;3.80;;;;;;;11.19;96.33;93493.38;1837917;78;21868;-85
2021/06/17 02:05:37;;;;;;;4.17;3.52;;;;;;;11.15;96.07;93491.27;1837601;78;21073;-84
2021/06/17 02:08:04;;;;;;;5.50;3.50;;;;;;;11.11;96.00;93488.56;1837880;78;21030;-84
2021/06/17 02:10:31;;;;;;;7.20;3.72;;;;;;;11.09;95.92;93489.53;1838293;78;21651;-83
2021/06/17 02:12:58;;;;;;;5.05;3.77;;;;;;;11.04;96.11;93489.18;1838459;76;21007;-85
2021/06/17 02:15:29;;;;;;;4.22;3.70;;;;;;;11.03;96.33;93489.77;1837665;78;21077;-84
2021/06/17 02:17:56;;;;;;;6.10;4.20;;;;;;;11.03;96.26;93493.85;1836925;77;21072;-86
2021/06/17 02:20:23;;;;;;;3.70;3.40;;;;;;;11.02;96.25;93496.39;1836759;78;21393;-87
2021/06/17 02:22:51;;;;;;;4.10;3.30;;;;;;;11.02;96.52;93488.23;1837796;76;21034;-85
2021/06/17 02:25:18;;;;;;;4.60;3.50;;;;;;;11.06;96.00;93492.30;1838655;78;20994;-86
2021/06/17 02:27:46;;;;;;;5.05;4.10;;;;;;;11.07;95.55;93487.03;1838150;78;21136;-85
2021/06/17 02:30:15;;;;;;;3.83;3.47;;;;;;;11.06;95.27;93487.62;1812588;76;21034;-84
2021/06/17 02:32:50;;;;;;;4.45;4.03;;;;;;;11.04;94.95;93491.31;1838661;78;21006;-87
2021/06/17 02:35:21;;;;;;;4.90;4.42;;;;;;;11.03;94.93;93491.72;1838118;78;27839;-86
2021/06/17 02:37:52;;;;;;;6.95;4.10;;;;;;;11.02;94.95;93490.95;1838235;76;21069;-83
2021/06/17 02:40:19;;;;;;;5.65;3.70;;;;;;;11.01;94.62;93487.25;1837870;76;21914;-83
2021/06/17 02:42:46;;;;;;;5.10;3.87;;;;;;;10.91;94.65;93492.34;1836719;78;21396;-86
2021/06/17 02:45:15;;;;;;;4.80;3.87;;;;;;;10.86;94.90;93487.30;1836941;78;21018;-84
2021/06/17 02:47:41;;;;;;;8.13;4.00;;;;;;;10.80;95.21;93488.89;1837592;78;21034;-87
2021/06/17 02:50:09;;;;;;;5.08;4.00;;;;;;;10.78;95.97;93483.06;1837176;78;21023;-86
2021/06/17 02:52:40;;;;;;;4.37;3.98;;;;;;;10.79;96.25;93482.47;1836758;77;21102;-84
2021/06/17 02:55:07;;;;;;;9.03;4.10;;;;;;;10.79;96.36;93487.33;1837166;78;21034;-86
2021/06/17 02:57:48;;;;;;;3.65;3.35;;;;;;;10.76;96.39;93492.22;1837187;78;21552;-85
2021/06/17 03:00:17;;;;;;;10.60;4.20;;;;;;;10.79;96.42;93496.84;1836899;78;21917;-84
2021/06/17 03:03:10;;;;;;;3.87;3.40;;;;;;;10.83;95.94;93497.63;1837524;78;21074;-85
2021/06/17 03:05:58;;;;;;;5.53;3.30;;;;;;;10.82;95.59;93500.73;1754992;79;21125;-87
2021/06/17 03:08:35;;;;;;;5.90;3.92;;;;;;;10.79;95.39;93501.52;1778175;78;21046;-85
2021/06/17 03:11:07;;;;;;;3.95;3.50;;;;;;;10.73;95.31;93507.95;1797992;78;21017;-85
2021/06/17 03:13:36;;;;;;;4.28;3.17;;;;;;;10.71;95.46;93511.64;1795226;79;21026;-88
2021/06/17 03:16:04;;;;;;;3.95;3.62;;;;;;;10.68;95.51;93512.42;1793358;78;21702;-86
2021/06/17 03:18:32;;;;;;;6.55;4.60;;;;;;;10.66;95.43;93516.91;1809386;78;21103;-86
2021/06/17 03:20:58;;;;;;;7.25;4.53;;;;;;;10.64;95.40;93514.37;1798123;79;21034;-87
2021/06/17 03:23:26;;;;;;;5.72;4.55;;;;;;;10.60;95.52;93520.41;1827679;78;21051;-85
2021/06/17 03:25:55;;;;;;;10.25;4.67;;;;;;;10.57;95.81;93527.43;1802994;77;21031;-85
2021/06/17 03:28:22;;;;;;;5.87;5.28;;;;;;;10.55;96.15;93537.91;1842394;77;21873;-87
2021/06/17 03:30:50;;;;;;;7.10;5.25;;;;;;;10.58;96.37;93546.64;1838299;77;21135;-84
2021/06/17 03:33:18;;;;;;;5.42;4.80;;;;;;;10.66;96.10;93555.56;1838704;78;21031;-87
2021/06/17 03:35:46;;;;;;;6.12;4.35;;;;;;;10.68;95.84;93553.21;1847773;77;21567;-85
2021/06/17 03:38:15;;;;;;;6.08;5.50;;;;;;;10.69;96.27;93555.56;1823349;77;21006;-84
2021/06/17 03:40:44;;;;;;;4.80;4.28;;;;;;;10.74;96.53;93553.02;1806133;79;20927;-86
2021/06/17 03:43:12;;;;;;;5.40;4.90;;;;;;;10.74;96.83;93559.05;1811329;77;21124;-87
2021/06/17 03:45:39;;;;;;;7.25;4.42;;;;;;;10.72;97.08;93564.09;1836349;76;21002;-88
2021/06/17 03:48:07;;;;;;;5.35;4.78;;;;;;;10.69;97.12;93577.31;1868675;76;21547;-85
2021/06/17 03:50:33;;;;;;;5.17;4.08;;;;;;;10.67;97.30;93581.58;1836485;76;21062;-85
2021/06/17 03:53:00;;;;;;;5.87;5.00;;;;;;;10.67;97.77;93585.66;1795051;79;21021;-85
2021/06/17 03:55:27;;;;;;;7.37;5.00;;;;;;;10.69;98.42;93586.06;1794739;79;21085;-88
2021/06/17 03:57:56;;;;;;;5.20;4.70;;;;;;;10.73;98.55;93578.67;1798776;79;21184;-85
2021/06/17 04:00:25;;;;;;;8.70;4.47;;;;;;;10.78;98.79;93583.70;1838719;77;21392;-86
2021/06/17 04:02:55;;;;;;;7.15;4.50;;;;;;;10.86;98.91;93585.23;1839186;78;21300;-84
2021/06/17 04:05:22;;;;;;;6.37;4.35;;;;;;;10.92;98.93;93580.17;1825163;78;21010;-86
2021/06/17 04:07:50;;;;;;;8.20;7.00;;;;;;;11.05;98.88;93584.59;1805626;79;21077;-85
2021/06/17 04:10:17;;;;;;;8.65;5.83;;;;;;;11.11;98.39;93594.69;1818452;77;21011;-84
2021/06/17 04:12:44;;;;;;;7.58;6.70;;;;;;;11.17;97.84;93601.30;1794951;78;21002;-85
2021/06/17 04:15:12;;;;;;;7.45;5.90;;;;;;;11.19;97.52;93600.89;1801710;79;21500;-86
2021/06/17 04:17:47;;;;;;;6.28;5.67;;;;;;;11.22;97.27;93595.25;1774541;79;21085;-85
2021/06/17 04:20:25;;;;;;;6.25;5.62;;;;;;;11.27;96.88;93594.83;1831532;77;25646;-85
2021/06/17 04:22:53;;;;;;;7.83;5.90;;;;;;;11.32;96.55;93594.41;1839822;77;21018;-85
2021/06/17 04:25:20;;;;;;;8.28;5.90;;;;;;;11.39;96.04;93596.52;1838133;77;21066;-84
2021/06/17 04:27:50;;;;;;;8.78;5.55;;;;;;;11.47;95.62;93601.38;1837861;78;21041;-86
2021/06/17 04:30:18;;;;;;;6.45;4.45;;;;;;;11.55;95.26;93589.28;1768479;79;21014;-84
2021/06/17 04:32:50;;;;;;;5.33;4.83;;;;;;;11.61;95.00;93595.06;1800778;77;21104;-87
2021/06/17 04:35:19;;;;;;;5.25;4.30;;;;;;;11.69;94.67;93595.22;1828911;77;21010;-87
2021/06/17 04:37:47;;;;;;;4.75;4.35;;;;;;;11.71;94.21;93589.39;1815087;77;21002;-85
2021/06/17 04:40:22;;;;;;;6.33;3.83;;;;;;;11.68;94.08;93596.39;1813377;76;21045;-86
2021/06/17 04:42:56;;;;;;;7.30;4.53;;;;;;;11.62;94.20;93592.53;1822588;77;21100;-87
2021/06/17 04:45:26;;;;;;;5.28;4.42;;;;;;;11.58;94.74;93590.41;1804618;79;21284;-87
2021/06/17 04:47:53;;;;;;;5.67;4.15;;;;;;;11.61;95.90;93592.34;1812969;77;21078;-85
2021/06/17 04:50:22;;;;;;;6.42;3.77;;;;;;;11.69;96.53;93585.68;1790871;78;21488;-88
2021/06/17 04:52:59;;;;;;;4.75;4.35;;;;;;;11.79;96.93;93583.49;1793056;79;21000;-86
2021/06/17 04:55:28;;;;;;;6.83;4.65;;;;;;;11.92;97.25;93574.28;1807718;79;21030;-85
2021/06/17 04:57:55;;;;;;;9.78;6.33;;;;;;;12.05;97.52;93571.28;1815700;79;21159;-85
2021/06/17 05:00:22;;;;;;;10.32;6.62;;;;;;;12.18;97.30;93582.47;1831911;78;21030;-88
2021/06/17 05:02:52;;;;;;;8.85;6.35;;;;;;;12.32;97.11;93582.38;1842808;77;21117;-87
2021/06/17 05:05:19;;;;;;;6.92;5.03;;;;;;;12.52;97.19;93585.31;1831270;77;21025;-85
2021/06/17 05:13:03;;;;;;;5.25;4.62;;;;;;;13.17;96.17;93583.34;1834731;77;21019;-86
2021/06/17 05:15:30;;;;;;;5.92;4.80;;;;;;;13.50;95.18;93585.88;1806986;79;21065;-88
2021/06/17 05:17:57;;;;;;;4.08;3.67;;;;;;;13.85;94.37;93586.03;1796353;79;21046;-87
2021/06/17 05:20:27;;;;;;;4.60;3.90;;;;;;;14.30;93.56;93576.20;1774833;79;21089;-85
2021/06/17 05:22:54;;;;;;;5.78;5.22;;;;;;;14.72;91.72;93580.22;1782584;78;21775;-85
2021/06/17 05:25:21;;;;;;;5.50;4.83;;;;;;;14.98;90.11;93584.06;1828167;76;21157;-86
2021/06/17 05:27:49;;;;;;;4.72;4.25;;;;;;;15.19;88.98;93580.14;1766981;80;21060;-86
2021/06/17 05:30:20;;;;;;;5.00;4.40;;;;;;;15.32;88.35;93580.31;1808663;78;21052;-84
2021/06/17 05:32:46;;;;;;;6.03;4.80;;;;;;;15.46;87.54;93584.75;1833346;77;21042;-85
2021/06/17 05:35:14;;;;;;;4.72;4.33;;;;;;;15.68;86.98;93573.55;1838068;77;21022;-85
2021/06/17 05:37:44;;;;;;;4.70;4.30;;;;;;;16.03;86.03;93564.38;1816976;77;21046;-84
2021/06/17 05:40:13;;;;;;;5.12;4.47;;;;;;;16.40;84.13;93563.73;1813011;77;21076;-86
2021/06/17 05:42:40;;;;;;;13.80;5.08;;;;;;;16.72;82.31;93566.45;1820692;77;21058;-85
2021/06/17 05:45:10;;;;;;;8.45;5.67;;;;;;;16.93;80.81;93564.41;1807673;77;21047;-84
2021/06/17 05:47:41;;;;;;;8.23;6.12;;;;;;;17.01;79.68;93568.50;1833697;77;21105;-84
2021/06/17 05:50:10;;;;;;;7.50;5.20;;;;;;;16.99;79.23;93564.03;1818749;77;21315;-84
2021/06/17 05:52:37;;;;;;;8.48;5.67;;;;;;;17.05;79.09;93567.81;1804562;78;21046;-86
2021/06/17 05:55:09;;;;;;;7.20;5.60;;;;;;;17.10;78.76;93573.38;1816581;78;21049;-83
2021/06/17 05:57:37;;;;;;;9.03;6.10;;;;;;;17.09;78.56;93571.23;1826467;78;21627;-85
2021/06/17 06:00:06;;;;;;;6.35;4.65;;;;;;;17.10;78.12;93571.39;1796362;78;21307;-88
2021/06/17 06:02:35;;;;;;;7.00;5.42;;;;;;;17.13;78.25;93576.63;1807419;78;21040;-87
2021/06/17 06:05:03;;;;;;;6.10;4.67;;;;;;;17.19;78.17;93578.42;1812189;77;21057;-85
2021/06/17 06:07:31;;;;;;;6.10;5.28;;;;;;;17.29;78.25;93578.56;1819997;75;21032;-87
2021/06/17 06:09:58;;;;;;;6.03;4.95;;;;;;;17.52;77.30;93575.55;1805750;77;20946;-87
2021/06/17 06:12:26;;;;;;;7.30;5.30;;;;;;;17.70;76.08;93582.70;1751390;79;21163;-87
2021/06/17 06:14:53;;;;;;;5.53;5.00;;;;;;;17.77;75.23;93582.38;1842076;76;21017;-87
2021/06/17 06:17:20;;;;;;;5.78;5.12;;;;;;;17.79;74.03;93582.11;1822802;76;21092;-85
2021/06/17 06:22:36;;;;;;;5.80;4.85;;;;;;;17.94;74.47;93590.69;1856789;75;22055;-81
2021/06/17 06:25:05;;;;;;;6.08;4.42;;;;;;;18.05;73.75;93593.13;1800587;77;21068;-81
2021/06/17 06:27:31;;;;;;;6.70;5.12;;;;;;;18.18;73.27;93594.70;1788073;78;21120;-82
2021/06/17 06:30:02;;;;;;;7.20;4.72;;;;;;;18.28;72.50;93589.29;1795929;78;21033;-82
2021/06/17 06:32:26;;;;;;;5.28;4.72;;;;;;;18.33;71.50;93593.66;1776963;79;21054;-83
2021/06/17 06:34:53;;;;;;;5.40;4.58;;;;;;;18.32;70.49;93597.63;1704214;81;21144;-81
2021/06/17 06:37:19;;;;;;;6.85;5.08;;;;;;;18.33;70.15;93599.16;1712107;83;21149;-83
2021/06/17 06:42:32;;;;;;;8.73;6.92;;;;;;;18.34;69.31;93601.30;1867316;75;22439;-81
2021/06/17 06:47:34;;;;;;;6.78;4.80;;;;;;;18.23;68.85;93602.23;1821916;77;22689;-85
2021/06/17 06:50:03;;;;;;;7.35;4.75;;;;;;;18.18;67.89;93607.69;1765216;79;21136;-84
2021/06/17 06:52:30;;;;;;;4.50;4.10;;;;;;;18.11;67.22;93607.28;1752996;80;22174;-85
2021/06/17 06:56:39;;;;;;;7.17;4.37;;;;;;;18.04;66.69;93606.73;1884403;76;22625;-84
2021/06/17 06:59:05;;;;;;;5.20;4.70;;;;;;;17.90;67.23;93608.70;1824995;77;21582;-83
2021/06/17 07:01:37;;;;;;;5.60;4.33;;;;;;;17.82;67.63;93601.84;1838325;77;21114;-80
2021/06/17 07:04:05;;;;;;;4.72;4.28;;;;;;;17.80;68.48;93604.88;1821511;78;21033;-85
2021/06/17 07:06:35;;;;;;;7.83;5.22;;;;;;;17.79;68.37;93617.06;1752501;77;21132;-85
2021/06/17 07:09:02;;;;;;;7.67;5.67;;;;;;;17.79;69.17;93614.31;1814221;77;21476;-84
2021/06/17 07:11:31;;;;;;;4.70;4.30;;;;;;;17.85;69.14;93607.84;1838413;76;21066;-84
2021/06/17 07:14:01;;;;;;;7.12;4.95;;;;;;;17.95;68.95;93612.28;1824848;76;21124;-84
2021/06/17 07:16:32;;;;;;;7.45;5.05;;;;;;;18.11;68.62;93613.40;1806614;76;21063;-84
2021/06/17 07:19:02;;;;;;;10.45;5.50;;;;;;;18.26;68.61;93611.77;1779757;78;21048;-83
2021/06/17 07:21:29;;;;;;;5.10;4.45;;;;;;;18.42;68.47;93618.53;1827474;77;21033;-84
2021/06/17 07:23:59;;;;;;;4.42;3.98;;;;;;;18.56;66.89;93618.70;1795984;78;21071;-85
2021/06/17 07:26:32;;;;;;;9.30;4.50;;;;;;;18.72;65.51;93618.45;1816951;76;21083;-82
2021/06/17 07:29:03;;;;;;;7.72;4.25;;;;;;;18.88;65.58;93616.34;1791279;78;21083;-83
2021/06/17 07:31:30;;;;;;;7.80;4.72;;;;;;;19.04;62.91;93616.04;1803087;77;21055;-82
2021/06/17 07:33:57;;;;;;;6.62;5.03;;;;;;;19.09;61.44;93618.98;1801928;77;21037;-81
2021/06/17 07:36:26;;;;;;;5.20;4.70;;;;;;;19.08;61.70;93622.97;1817720;77;21036;-82
2021/06/17 07:38:58;;;;;;;5.17;4.22;;;;;;;19.03;60.66;93619.98;1761648;78;21570;-82
2021/06/17 07:41:35;;;;;;;5.25;4.30;;;;;;;18.93;60.79;93608.89;1786307;78;21023;-81
2021/06/17 07:44:00;;;;;;;7.83;4.60;;;;;;;18.88;61.45;93606.70;1810856;77;21332;-82
2021/06/17 07:46:27;;;;;;;5.12;3.83;;;;;;;18.90;60.84;93611.76;1813717;78;21089;-81
2021/06/17 07:49:02;;;;;;;6.37;3.70;;;;;;;18.89;60.02;93618.48;1809560;76;21075;-82
2021/06/17 07:51:31;;;;;;;4.85;3.92;;;;;;;18.85;60.06;93624.11;1793312;77;21717;-83
2021/06/17 07:54:00;;;;;;;4.83;3.92;;;;;;;18.82;59.45;93625.61;1796778;78;21141;-84
2021/06/17 07:56:29;;;;;;;5.05;3.62;;;;;;;18.80;60.65;93630.16;1796179;78;22092;-84
2021/06/17 07:58:56;;;;;;;4.20;3.90;;;;;;;18.74;58.28;93626.44;1826864;77;21031;-81
2021/06/17 08:01:26;;;;;;;4.33;3.77;;;;;;;18.68;57.76;93623.42;1803620;77;21112;-83
2021/06/17 08:03:53;;;;;;;5.25;4.10;;;;;;;18.63;58.28;93619.86;1759227;79;21124;-82
2021/06/17 08:06:21;;;;;;;5.05;4.03;;;;;;;18.64;58.52;93627.51;1814560;77;21380;-82
2021/06/17 08:08:48;;;;;;;4.30;3.90;;;;;;;18.69;58.76;93626.36;1811300;78;21032;-82
2021/06/17 08:11:15;;;;;;;6.83;4.20;;;;;;;18.82;58.39;93619.48;1794524;78;21506;-83
2021/06/17 08:13:42;;;;;;;6.58;4.62;;;;;;;18.88;58.61;93616.92;1784616;77;21058;-84
2021/06/17 08:16:09;;;;;;;5.80;4.05;;;;;;;18.91;58.10;93619.56;1814991;78;21917;-82
2021/06/17 08:23:29;;;;;;;7.53;3.67;;;;;;;19.12;53.87;93619.48;1787612;79;22031;-87
2021/06/17 08:25:56;;;;;;;8.30;4.35;;;;;;;19.21;56.97;93622.16;1785748;78;21049;-81
2021/06/17 08:28:26;;;;;;;4.47;4.08;;;;;;;19.33;58.35;93616.63;1821223;78;21054;-80
2021/06/17 08:30:53;;;;;;;4.65;4.10;;;;;;;19.47;58.57;93611.20;1799900;77;21031;-80
2021/06/17 08:33:20;;;;;;;4.25;3.85;;;;;;;19.56;58.08;93616.81;1838794;77;20979;-79
2021/06/17 08:35:51;;;;;;;4.42;3.80;;;;;;;19.63;56.45;93617.17;1742659;82;21061;-83
2021/06/17 08:38:15;;;;;;;3.87;3.37;;;;;;;19.68;56.33;93622.13;1803528;78;21536;-82
2021/06/17 08:40:41;;;;;;;6.80;3.55;;;;;;;19.71;55.44;93613.55;1758309;79;21129;-83
2021/06/17 08:43:07;;;;;;;3.95;3.52;;;;;;;19.70;55.85;93615.55;1778300;80;21024;-82
2021/06/17 08:45:34;;;;;;;3.75;3.20;;;;;;;19.71;55.06;93607.45;1793993;77;21014;-88
2021/06/17 08:48:00;;;;;;;4.60;2.70;;;;;;;19.70;52.96;93615.55;1782419;80;21049;-84
2021/06/17 08:50:27;;;;;;;6.15;4.22;;;;;;;19.66;51.59;93613.52;1857119;75;21128;-83
2021/06/17 08:52:54;;;;;;;3.42;3.12;;;;;;;19.57;50.92;93607.92;1880425;74;21092;-85
2021/06/17 08:55:25;;;;;;;2.95;2.45;;;;;;;19.47;49.72;93623.61;1816837;77;21091;-79
2021/06/17 08:57:53;;;;;;;3.10;2.77;;;;;;;19.41;48.11;93627.56;1837344;77;21080;-79
2021/06/17 09:00:34;;;;;;;3.52;3.22;;;;;;;19.41;49.42;93626.80;1805706;77;21017;-80
2021/06/17 09:03:19;;;;;;;6.28;3.80;;;;;;;19.39;48.45;93614.81;1834764;77;22174;-88
2021/06/17 09:05:52;;;;;;;7.17;3.67;;;;;;;19.45;52.97;93618.41;1788182;78;21405;-83
2021/06/17 09:08:28;;;;;;;4.60;3.20;;;;;;;19.49;53.19;93620.42;1800398;79;20939;-86
2021/06/17 09:10:58;;;;;;;3.45;3.15;;;;;;;19.47;53.02;93619.48;1790595;78;21089;-87
2021/06/17 09:13:31;;;;;;;4.67;3.00;;;;;;;19.51;53.86;93618.73;1808690;75;21029;-81
2021/06/17 09:16:00;;;;;;;4.92;3.25;;;;;;;19.57;52.50;93615.58;1847253;75;21034;-85
2021/06/17 09:18:44;;;;;;;6.10;3.35;;;;;;;19.62;52.62;93620.55;1859322;75;21088;-86
2021/06/17 09:21:12;;;;;;;2.75;2.52;;;;;;;19.69;53.42;93622.91;1808254;78;21057;-85
2021/06/17 09:23:45;;;;;;;4.10;2.72;;;;;;;19.81;52.42;93621.45;1866053;76;21084;-87
2021/06/17 09:26:20;;;;;;;6.10;2.58;;;;;;;19.93;49.91;93624.59;1826482;77;21098;-86
2021/06/17 09:29:07;;;;;;;4.62;3.30;;;;;;;19.96;49.83;93627.22;1815227;77;21293;-89
2021/06/17 09:31:35;;;;;;;;;;;;;;;19.91;48.18;93636.70;1850807;74;22262;-86
2021/06/17 09:34:14;;;;;;;3.08;2.70;;;;;;;19.79;46.87;93634.94;1863017;75;20159;-84
2021/06/17 09:39:52;;;;;;;3.50;3.20;;;;;;;19.70;48.86;93638.99;1751413;80;21128;-82
2021/06/17 09:42:19;;;;;;;4.53;3.27;;;;;;;19.64;49.32;93636.66;1788330;78;21037;-82
2021/06/17 09:44:46;;;;;;;8.05;3.25;;;;;;;19.60;49.05;93644.27;1791495;78;21466;-83
2021/06/17 09:47:21;;;;;;;4.70;3.00;;;;;;;19.53;48.40;93640.38;1797488;78;21058;-86
2021/06/17 09:49:48;;;;;;;;;;;;;;;19.47;48.45;93643.53;1778171;77;21240;-83
2021/06/17 09:52:15;;;;;;;12.33;4.28;;;;;;;19.44;48.35;93634.16;1877522;75;20484;-81
2021/06/17 09:54:53;;;;;;;5.55;3.62;;;;;;;19.41;49.76;93639.20;1824896;76;21034;-83
2021/06/17 09:57:19;;;;;;;3.62;2.83;;;;;;;19.41;49.82;93644.11;1797980;78;21106;-82
2021/06/17 09:59:50;;;;;;;4.85;3.05;;;;;;;19.40;48.91;93645.91;1812992;76;21236;-82
2021/06/17 10:02:37;;;;;;;2.85;2.65;;;;;;;19.41;50.52;93645.48;1829769;76;21069;-85
2021/06/17 10:05:18;;;;;;;2.85;2.55;;;;;;;19.40;50.38;93654.19;1806674;74;21046;-87
2021/06/17 10:07:44;;;;;;;4.10;2.42;;;;;;;19.35;51.28;93646.49;1871679;74;21029;-82
2021/06/17 10:10:15;;;;;;;3.42;3.12;;;;;;;19.30;51.12;93640.94;1816482;78;21042;-77
2021/06/17 10:12:42;;;;;;;3.65;3.30;;;;;;;19.29;50.41;93659.29;1844543;77;21037;-80
2021/06/17 10:15:10;;;;;;;5.03;4.22;;;;;;;19.26;51.31;93652.70;1821959;77;21085;-81
2021/06/17 10:17:37;;;;;;;3.30;3.00;;;;;;;19.27;51.31;93650.70;1773240;78;21627;-79
2021/06/17 10:20:08;;;;;;;4.17;2.83;;;;;;;19.27;50.94;93658.98;1779627;79;21046;-80
2021/06/17 10:25:09;;;;;;;4.70;3.55;;;;;;;19.31;52.51;93655.49;1844797;75;21026;-83
2021/06/17 10:27:38;;;;;;;7.53;3.58;;;;;;;19.37;51.36;93649.59;1817174;75;21045;-81
2021/06/17 10:30:06;;;;;;;5.65;3.55;;;;;;;19.43;52.34;93649.78;1838031;75;21496;-84
2021/06/17 10:32:43;;;;;;;5.28;3.10;;;;;;;19.47;52.29;93648.43;1807848;77;20983;-80
2021/06/17 10:35:14;;;;;;;6.55;3.65;;;;;;;19.52;50.82;93658.91;1805219;77;21100;-81
2021/06/17 10:37:44;;;;;;;6.28;3.33;;;;;;;19.59;52.56;93650.98;1801046;78;21070;-85
2021/06/17 10:40:16;;;;;;;4.78;3.35;;;;;;;19.64;53.75;93651.83;1820656;77;21129;-79
2021/06/17 10:42:44;;;;;;;3.67;3.15;;;;;;;19.67;52.85;93660.59;1852427;76;20994;-76
2021/06/17 10:45:35;;;;;;;3.67;3.35;;;;;;;19.68;52.42;93659.98;1829756;75;21134;-82
2021/06/17 10:48:09;;;;;;;4.37;3.37;;;;;;;19.65;52.94;93661.64;1805925;76;21103;-82
2021/06/17 10:50:47;;;;;;;4.90;3.70;;;;;;;19.63;53.58;93655.79;1818776;77;21284;-83
2021/06/17 10:53:33;;;;;;;3.85;3.55;;;;;;;19.62;54.19;93650.12;1806704;77;21069;-81
2021/06/17 10:56:10;;;;;;;3.92;3.60;;;;;;;19.63;54.71;93649.69;1768418;77;21053;-79
2021/06/17 10:58:50;;;;;;;3.85;3.30;;;;;;;19.62;54.31;93634.95;1815053;77;21139;-82
2021/06/17 11:01:34;;;;;;;;;;;;;;;19.62;55.58;93640.47;1818009;77;21616;-80
2021/06/17 11:04:08;;;;;;;5.30;3.52;;;;;;;19.71;56.89;93637.80;1810240;77;20177;-84
2021/06/17 11:07:10;;;;;;;7.65;3.42;;;;;;;19.82;54.79;93634.63;1808505;77;21603;-84
2021/06/17 11:09:45;;;;;;;10.72;4.17;;;;;;;19.89;56.95;93636.52;1764156;79;21028;-83
2021/06/17 11:12:24;;;;;;;4.42;3.20;;;;;;;19.97;54.98;93641.78;1763885;80;21042;-82
2021/06/17 11:14:57;;;;;;;5.55;3.92;;;;;;;20.00;55.54;93643.03;1806108;76;21276;-82
2021/06/17 11:17:44;;;;;;;4.90;3.87;;;;;;;20.00;55.61;93635.38;1817206;75;21149;-80
2021/06/17 11:20:38;;;;;;;7.78;3.80;;;;;;;19.96;54.84;93635.50;1791840;78;21049;-83
2021/06/17 11:23:06;;;;;;;4.83;4.00;;;;;;;19.95;56.40;93631.83;1832987;77;21003;-86
2021/06/17 11:25:39;;;;;;;5.37;3.83;;;;;;;20.02;57.32;93619.14;1799704;78;21060;-88
2021/06/17 11:28:12;;;;;;;4.08;3.67;;;;;;;20.14;58.56;93616.91;1809816;77;21054;-85
2021/06/17 11:30:54;;;;;;;4.17;3.77;;;;;;;20.21;56.90;93616.64;1811934;78;21038;-84
2021/06/17 11:33:26;;;;;;;4.58;3.52;;;;;;;20.24;55.82;93603.94;1843673;74;21921;-79
2021/06/17 11:35:58;;;;;;;4.42;3.70;;;;;;;20.25;55.03;93605.47;1850881;75;21588;-79
2021/06/17 11:39:07;;;;;;;4.55;3.98;;;;;;;20.24;54.73;93610.23;1802192;78;22131;-82
2021/06/17 11:41:24;;;;;;;4.65;3.98;;;;;;;20.23;53.33;93614.19;1794704;77;21077;-80
2021/06/17 11:43:56;;;;;;;5.87;4.20;;;;;;;20.16;53.30;93613.69;1800500;77;21962;-80
2021/06/17 11:46:37;;;;;;;4.70;4.12;;;;;;;20.09;54.06;93611.98;1813668;77;20965;-80
2021/06/17 11:49:08;;;;;;;7.00;4.08;;;;;;;20.06;54.59;93611.50;1857519;75;21021;-78
2021/06/17 11:51:51;;;;;;;4.85;4.30;;;;;;;20.08;54.99;93602.14;1873908;75;21107;-83
2021/06/17 11:54:21;;;;;;;6.08;5.47;;;;;;;20.13;55.61;93599.58;1825592;75;21105;-84
2021/06/17 11:57:06;;;;;;;5.17;4.75;;;;;;;20.26;56.56;93597.34;1792924;75;21662;-85
2021/06/17 11:59:49;;;;;;;6.83;4.50;;;;;;;20.41;57.08;93590.04;1867175;74;21076;-83
2021/06/17 12:02:26;;;;;;;8.98;4.95;;;;;;;20.49;56.81;93587.18;1860264;75;21614;-86
2021/06/17 12:05:03;;;;;;;4.80;4.20;;;;;;;20.53;57.76;93590.57;1818585;77;21314;-86
2021/06/17 12:07:37;;;;;;;5.50;4.10;;;;;;;20.59;58.25;93591.52;1884586;74;21175;-86
2021/06/17 12:10:41;;;;;;;;;;;;;;;;;;;;;
2021/06/17 12:12:53;;;;;;;4.05;3.65;;;;;;;20.54;56.13;93596.27;1798056;77;21925;-83
2021/06/17 12:15:43;;;;;;;4.50;3.70;;;;;;;20.50;53.03;93602.55;1839674;75;21033;-82